createdAt,value
2022-08-17T04:50:46.489Z,100.00
2022-08-17T04:53:15.279Z,100.00
2022-08-17T04:55:43.144Z,100.00
2022-08-17T05:04:42.189Z,100.00
2022-08-17T05:07:10.617Z,100.00
2022-08-17T05:09:38.212Z,100.00
2022-08-17T05:12:06.349Z,100.00
2022-08-17T05:14:34.061Z,100.00
2022-08-17T05:17:08.085Z,100.00
2022-08-17T05:19:39.412Z,100.00
2022-08-17T05:22:07.136Z,100.00
2022-08-17T05:24:42.618Z,100.00
2022-08-17T05:27:21.981Z,100.00
2022-08-17T05:29:51.184Z,100.00
2022-08-17T05:32:38.256Z,100.00
2022-08-17T05:35:07.812Z,100.00
2022-08-17T05:37:35.414Z,100.00
2022-08-17T05:40:03.345Z,100.00
2022-08-17T05:42:30.955Z,100.00
2022-08-17T05:44:59.138Z,100.00
2022-08-17T05:47:26.781Z,100.00
2022-08-17T05:49:54.415Z,100.00
2022-08-17T05:52:42.862Z,100.00
2022-08-17T05:55:16.921Z,100.00
2022-08-17T05:58:04.195Z,100.00
2022-08-17T06:00:33.570Z,100.00
2022-08-17T06:03:04.409Z,100.00
2022-08-17T06:05:53.023Z,100.00
2022-08-17T06:08:37.691Z,100.00
2022-08-17T06:11:05.247Z,100.00
2022-08-17T06:13:42.064Z,100.00
2022-08-17T06:16:34.183Z,100.00
2022-08-17T06:19:42.519Z,100.00
2022-08-17T06:22:13.550Z,100.00
2022-08-17T06:24:47.377Z,100.00
2022-08-17T06:27:35.824Z,100.00
2022-08-17T06:30:20.464Z,100.00
2022-08-17T06:32:49.806Z,100.00
2022-08-17T06:35:34.244Z,100.00
2022-08-17T06:38:33.955Z,100.00
2022-08-17T06:41:25.363Z,100.00
2022-08-17T06:44:02.204Z,100.00
2022-08-17T06:46:37.171Z,100.00
2022-08-17T06:49:14.148Z,100.00
2022-08-17T06:51:46.396Z,100.00
2022-08-17T06:54:40.160Z,100.00
2022-08-17T06:57:31.893Z,100.00
2022-08-17T07:00:04.124Z,100.00
2022-08-17T07:02:51.037Z,100.00
2022-08-17T07:05:20.881Z,100.00
2022-08-17T07:08:03.414Z,100.00
2022-08-17T07:10:48.974Z,99.87
2022-08-17T07:13:31.416Z,96.69
2022-08-17T07:16:11.194Z,96.00
2022-08-17T07:18:38.901Z,96.94
2022-08-17T07:21:34.544Z,94.37
2022-08-17T07:24:30.053Z,87.90
2022-08-17T07:27:10.822Z,91.39
2022-08-17T07:29:58.639Z,87.87
2022-08-17T07:32:31.674Z,83.45
2022-08-17T07:35:17.372Z,86.71
2022-08-17T07:38:25.394Z,85.71
2022-08-17T07:40:57.924Z,89.61
2022-08-17T07:43:26.415Z,95.28
2022-08-17T07:46:24.349Z,97.65
2022-08-17T07:48:56.913Z,97.86
2022-08-17T07:51:29.259Z,96.76
2022-08-17T07:54:13.503Z,96.09
2022-08-17T07:56:48.954Z,93.50
2022-08-17T07:59:18.432Z,89.88
2022-08-17T08:01:58.197Z,88.84
2022-08-17T08:07:17.697Z,82.23
2022-08-17T08:10:00.619Z,81.62
2022-08-17T08:12:34.268Z,76.16
2022-08-17T08:15:17.877Z,73.50
2022-08-17T08:17:54.553Z,83.80
2022-08-17T08:20:50.945Z,82.29
2022-08-17T08:23:39.618Z,81.49
2022-08-17T08:26:11.139Z,74.07
2022-08-17T08:28:52.293Z,72.05
2022-08-17T08:31:42.201Z,67.43
2022-08-17T08:34:53.494Z,70.13
2022-08-17T08:37:17.757Z,65.97
2022-08-17T08:40:16.163Z,65.91
2022-08-17T08:42:56.582Z,65.96
2022-08-17T08:45:24.095Z,63.70
2022-08-17T08:48:45.875Z,65.50
2022-08-17T08:51:22.117Z,64.60
2022-08-17T08:53:55.721Z,62.92
2022-08-17T08:56:58.999Z,58.26
2022-08-17T08:59:41.841Z,61.27
2022-08-17T09:02:34.852Z,63.73
2022-08-17T09:05:18.011Z,70.58
2022-08-17T09:07:57.608Z,65.17
2022-08-17T09:10:35.096Z,66.40
2022-08-17T09:13:15.363Z,71.77
2022-08-17T09:15:47.223Z,71.29
2022-08-17T09:19:02.395Z,66.71
2022-08-17T09:21:52.762Z,64.30
2022-08-17T09:24:20.967Z,63.74
2022-08-17T09:26:54.092Z,66.50
2022-08-17T09:29:25.551Z,67.17
2022-08-17T09:31:58.618Z,68.29
2022-08-17T09:34:39.012Z,65.12
2022-08-17T09:37:23.301Z,63.53
2022-08-17T09:40:06.892Z,62.57
2022-08-17T09:42:59.040Z,62.29
2022-08-17T09:45:38.781Z,64.62
2022-08-17T09:48:12.444Z,61.74
